Time;durP1;ratioP1;P1;durP2;ratioP2;P2;SDS_P1;SDS_P2;PMS_P1;PMS_P2;Temp;Humidity;BMP_temperature;BMP_pressure;BME280_temperature;BME280_humidity;BME280_pressure;Samples;Min_cycle;Max_cycle;Signal;HPM_P1;HPM_P2
2024/01/20 00:00:00;;;;;;;;;;;;;;;-2.69;100.00;102548.84;4979855;28;19929;-74
2024/01/20 00:02:25;;;;;;;;;;;;;;;-2.70;100.00;102563.75;5001003;28;19925;-74
2024/01/20 00:04:51;;;;;;;;;;;;;;;-2.65;100.00;102562.03;4988829;28;19972;-73
2024/01/20 00:07:16;;;;;;;;;;;;;;;-2.64;100.00;102558.50;4989810;28;20061;-74
2024/01/20 00:09:41;;;;;;;;;;;;;;;-2.68;100.00;102559.38;4988572;28;19945;-75
2024/01/20 00:12:06;;;;;;;;;;;;;;;-2.74;100.00;102564.59;4988435;28;20016;-74
2024/01/20 00:14:31;;;;;;;;;;;;;;;-2.78;100.00;102560.19;5000882;28;19921;-74
2024/01/20 00:16:57;;;;;;;;;;;;;;;-2.75;100.00;102568.09;4988028;28;19931;-74
2024/01/20 00:19:22;;;;;;;;;;;;;;;-2.54;100.00;102555.94;4986884;28;19933;-74
2024/01/20 00:21:47;;;;;;;;;;;;;;;-2.45;100.00;102566.50;4988646;28;19925;-74
2024/01/20 00:24:12;;;;;;;;;;;;;;;-2.48;100.00;102580.50;4991136;28;19921;-75
2024/01/20 00:26:37;;;;;;;;;;;;;;;-2.53;100.00;102568.22;4989126;28;19917;-74
2024/01/20 00:29:03;;;;;;;;;;;;;;;-2.47;100.00;102570.88;4991846;28;19929;-74
2024/01/20 00:31:28;;;;;;;;;;;;;;;-2.47;100.00;102563.84;4986858;28;19922;-74
2024/01/20 00:33:53;;;;;;;;;;;;;;;-2.48;100.00;102569.13;4986982;28;19925;-74
2024/01/20 00:36:18;;;;;;;;;;;;;;;-2.39;100.00;102577.06;4990611;28;20258;-74
2024/01/20 00:38:44;;;;;;;;;;;;;;;-2.41;100.00;102573.53;4989538;28;19964;-73
2024/01/20 00:41:10;;;;;;;;;;;;;;;-2.37;100.00;102572.66;4992068;28;20008;-73
2024/01/20 00:43:35;;;;;;;;;;;;;;;-2.34;100.00;102567.41;4989866;28;19921;-74
2024/01/20 00:46:00;;;;;;;;;;;;;;;-2.36;100.00;102574.41;4990102;28;20387;-74
2024/01/20 00:48:26;;;;;;;;;;;;;;;-2.35;100.00;102554.25;4985573;28;19961;-74
2024/01/20 00:50:51;;;;;;;;;;;;;;;-2.27;100.00;102565.72;4980599;28;19971;-74
2024/01/20 00:53:16;;;;;;;;;;;;;;;-2.35;100.00;102556.91;4988458;28;20047;-74
2024/01/20 00:55:41;;;;;;;;;;;;;;;-2.32;100.00;102565.66;4992313;28;19967;-74
2024/01/20 00:58:07;;;;;;;;;;;;;;;-2.24;100.00;102562.19;4997101;28;19921;-74
2024/01/20 01:00:32;;;;;;;;;;;;;;;-2.36;100.00;102558.63;4994078;28;19921;-74
2024/01/20 01:02:57;;;;;;;;;;;;;;;-2.25;100.00;102553.41;4995154;28;19925;-73
2024/01/20 01:05:22;;;;;;;;;;;;;;;-2.28;100.00;102559.53;4988781;28;19933;-74
2024/01/20 01:07:47;;;;;;;;;;;;;;;-2.32;100.00;102560.41;4993643;28;19924;-73
2024/01/20 01:10:13;;;;;;;;;;;;;;;-2.39;100.00;102560.38;4995751;28;19921;-74
2024/01/20 01:12:38;;;;;;;;;;;;;;;-2.36;100.00;102557.75;4989941;28;19964;-74
2024/01/20 01:15:04;;;;;;;;;;;;;;;-2.42;100.00;102558.63;4991623;28;20016;-74
2024/01/20 01:17:29;;;;;;;;;;;;;;;-2.51;100.00;102572.59;4991826;28;19927;-75
2024/01/20 01:19:54;;;;;;;;;;;;;;;-2.55;100.00;102573.47;4996574;28;19918;-74
2024/01/20 01:22:19;;;;;;;;;;;;;;;-2.54;100.00;102574.34;4996186;28;19928;-74
2024/01/20 01:24:45;;;;;;;;;;;;;;;-2.46;100.00;102570.88;4996471;28;19940;-74
2024/01/20 01:27:10;;;;;;;;;;;;;;;-2.44;100.00;102576.16;4989188;28;19917;-74
2024/01/20 01:29:35;;;;;;;;;;;;;;;-2.47;100.00;102571.75;4995194;28;20312;-74
2024/01/20 01:32:00;;;;;;;;;;;;;;;-2.48;100.00;102567.34;4996557;28;19925;-74
2024/01/20 01:34:26;;;;;;;;;;;;;;;-2.44;100.00;102569.13;4990150;28;20437;-74
2024/01/20 01:36:51;;;;;;;;;;;;;;;-2.52;100.00;102570.88;4983418;28;20027;-74
2024/01/20 01:39:21;;;;;;;;;;;;;;;-2.52;100.00;102581.38;4985949;28;19937;-74
2024/01/20 01:41:46;;;;;;;;;;;;;;;-2.35;100.00;102584.06;4988090;28;19941;-75
2024/01/20 01:44:11;;;;;;;;;;;;;;;-2.53;100.00;102586.63;4994673;28;20368;-74
2024/01/20 01:46:36;;;;;;;;;;;;;;;-2.56;100.00;102576.97;4989150;28;20387;-74
2024/01/20 01:49:02;;;;;;;;;;;;;;;-2.66;100.00;102577.78;4992272;28;20019;-74
2024/01/20 01:51:27;;;;;;;;;;;;;;;-2.48;100.00;102577.88;4989937;28;19963;-73
2024/01/20 01:53:52;;;;;;;;;;;;;;;-2.52;100.00;102583.13;4996087;28;20447;-74
2024/01/20 01:56:19;;;;;;;;;;;;;;;-2.45;100.00;102591.03;4986558;28;20450;-74
2024/01/20 01:58:44;;;;;;;;;;;;;;;-2.62;100.00;102592.72;4993710;28;20028;-74
2024/01/20 02:01:10;;;;;;;;;;;;;;;-2.67;100.00;102595.34;4989289;28;19925;-74
2024/01/20 02:03:35;;;;;;;;;;;;;;;-2.67;100.00;102607.59;4987346;28;20012;-73
2024/01/20 02:06:00;;;;;;;;;;;;;;;-2.66;100.00;102609.34;4991551;28;19925;-74
2024/01/20 02:08:26;;;;;;;;;;;;;;;-2.71;100.00;102602.31;4993074;28;19924;-75
2024/01/20 02:10:51;;;;;;;;;;;;;;;-2.59;100.00;102613.78;4996053;28;19921;-73
2024/01/20 02:13:17;;;;;;;;;;;;;;;-2.43;100.00;102607.72;5007316;28;19925;-73
2024/01/20 02:15:42;;;;;;;;;;;;;;;-2.62;100.00;102624.28;5003322;28;19932;-74
2024/01/20 02:18:07;;;;;;;;;;;;;;;-2.59;100.00;102632.19;5007319;28;20247;-74
2024/01/20 02:20:32;;;;;;;;;;;;;;;-2.59;100.00;102616.41;5008613;28;19917;-73
2024/01/20 02:22:57;;;;;;;;;;;;;;;-2.63;100.00;102628.63;5010511;28;19964;-74
2024/01/20 02:25:23;;;;;;;;;;;;;;;-2.69;100.00;102618.09;5008787;28;19929;-75
2024/01/20 02:27:48;;;;;;;;;;;;;;;-2.65;100.00;102624.25;5008178;28;19925;-74
2024/01/20 02:30:13;;;;;;;;;;;;;;;-2.66;100.00;102617.25;5003949;28;19922;-74
2024/01/20 02:32:38;;;;;;;;;;;;;;;-2.74;100.00;102617.19;5007858;28;19921;-74
2024/01/20 02:35:04;;;;;;;;;;;;;;;-2.67;100.00;102616.38;5004153;28;19921;-74
2024/01/20 02:37:29;;;;;;;;;;;;;;;-2.78;100.00;102616.28;4988571;28;19921;-74
2024/01/20 02:39:56;;;;;;;;;;;;;;;-2.74;100.00;102612.81;5009565;28;19960;-74
2024/01/20 02:42:21;;;;;;;;;;;;;;;-2.73;100.00;102614.56;5003768;28;19929;-74
2024/01/20 02:44:46;;;;;;;;;;;;;;;-2.71;100.00;102620.72;4996831;28;19926;-74
2024/01/20 02:47:11;;;;;;;;;;;;;;;-2.70;100.00;102621.59;5001618;28;19967;-74
2024/01/20 02:49:36;;;;;;;;;;;;;;;-2.66;100.00;102618.13;4998898;28;20167;-73
2024/01/20 02:52:02;;;;;;;;;;;;;;;-2.63;100.00;102618.13;5001942;28;20311;-74
2024/01/20 02:54:27;;;;;;;;;;;;;;;-2.63;100.00;102618.13;5000145;28;20048;-74
2024/01/20 02:56:52;;;;;;;;;;;;;;;-2.60;100.00;102615.50;5001350;28;19964;-73
2024/01/20 02:59:18;;;;;;;;;;;;;;;-2.86;100.00;102620.63;5002084;28;19972;-74
2024/01/20 03:01:43;;;;;;;;;;;;;;;-2.87;100.00;102624.97;5005611;28;20019;-74
2024/01/20 03:04:08;;;;;;;;;;;;;;;-2.92;100.00;102621.47;4998922;28;19921;-74
2024/01/20 03:06:33;;;;;;;;;;;;;;;-2.91;100.00;102625.81;4987485;28;20007;-74
2024/01/20 03:08:58;;;;;;;;;;;;;;;-2.93;100.00;102627.59;4989073;28;20372;-74
2024/01/20 03:11:24;;;;;;;;;;;;;;;-2.80;100.00;102618.03;4989204;28;20470;-73
2024/01/20 03:13:49;;;;;;;;;;;;;;;-2.89;100.00;102621.47;4974329;28;19918;-74
2024/01/20 03:16:14;;;;;;;;;;;;;;;-2.84;100.00;102620.63;4987851;28;19929;-74
2024/01/20 03:18:40;;;;;;;;;;;;;;;-2.71;100.00;102625.97;4992686;28;20554;-73
2024/01/20 03:21:05;;;;;;;;;;;;;;;-2.80;100.00;102623.31;4988154;28;19931;-73
2024/01/20 03:23:30;;;;;;;;;;;;;;;-2.90;100.00;102621.47;4989925;28;19918;-74
2024/01/20 03:25:55;;;;;;;;;;;;;;;-2.86;100.00;102626.75;4987189;28;19922;-73
2024/01/20 03:28:21;;;;;;;;;;;;;;;-2.90;100.00;102624.09;4990871;28;19921;-74
2024/01/20 03:30:46;;;;;;;;;;;;;;;-2.97;100.00;102628.44;4994224;28;19936;-74
2024/01/20 03:33:11;;;;;;;;;;;;;;;-2.90;100.00;102624.97;4991583;28;20584;-74
2024/01/20 03:35:36;;;;;;;;;;;;;;;-2.91;100.00;102627.59;4986156;28;19917;-74
2024/01/20 03:38:02;;;;;;;;;;;;;;;-2.91;100.00;102630.22;4988047;28;19922;-74
2024/01/20 03:40:27;;;;;;;;;;;;;;;-2.84;100.00;102620.63;4990818;28;19921;-73
2024/01/20 03:42:52;;;;;;;;;;;;;;;-2.75;100.00;102628.59;4989334;28;19929;-74
2024/01/20 03:45:17;;;;;;;;;;;;;;;-2.82;100.00;102632.94;5002847;28;20012;-73
2024/01/20 03:47:42;;;;;;;;;;;;;;;-2.77;100.00;102635.56;4987733;28;19928;-73
2024/01/20 03:50:09;;;;;;;;;;;;;;;-2.77;100.00;102628.56;4988337;28;19928;-73
2024/01/20 03:52:34;;;;;;;;;;;;;;;-2.81;100.00;102625.91;4991026;28;20004;-73
2024/01/20 03:54:59;;;;;;;;;;;;;;;-2.89;100.00;102637.25;4995010;28;20029;-73
2024/01/20 03:57:24;;;;;;;;;;;;;;;-2.80;100.00;102633.81;5005689;28;20004;-74
2024/01/20 03:59:50;;;;;;;;;;;;;;;-2.91;100.00;102640.72;4990099;28;19918;-74
2024/01/20 04:02:15;;;;;;;;;;;;;;;-2.78;100.00;102631.19;5002494;28;19936;-74
2024/01/20 04:04:40;;;;;;;;;;;;;;;-2.72;100.00;102633.88;4989973;28;20367;-74
2024/01/20 04:07:05;;;;;;;;;;;;;;;-2.75;100.00;102639.97;4990667;28;20320;-74
2024/01/20 04:09:31;;;;;;;;;;;;;;;-2.66;100.00;102639.16;4986892;28;20441;-73
2024/01/20 04:11:56;;;;;;;;;;;;;;;-2.67;100.00;102639.16;4986706;28;20024;-73
2024/01/20 04:14:21;;;;;;;;;;;;;;;-2.50;100.00;102626.97;4986446;28;19921;-74
2024/01/20 04:16:47;;;;;;;;;;;;;;;-2.66;100.00;102633.00;4988027;28;19926;-74
2024/01/20 04:19:12;;;;;;;;;;;;;;;-2.65;100.00;102640.03;4986708;28;20258;-72
2024/01/20 04:21:37;;;;;;;;;;;;;;;-2.75;100.00;102641.72;4986136;28;19932;-74
2024/01/20 04:24:03;;;;;;;;;;;;;;;-2.63;100.00;102641.78;4987952;28;19928;-73
2024/01/20 04:26:28;;;;;;;;;;;;;;;-2.57;100.00;102643.59;4989939;28;19928;-74
2024/01/20 04:28:53;;;;;;;;;;;;;;;-2.56;100.00;102642.72;4985443;28;19968;-73
2024/01/20 04:31:18;;;;;;;;;;;;;;;-2.57;100.00;102641.84;4985040;28;19932;-73
2024/01/20 04:33:44;;;;;;;;;;;;;;;-2.62;100.00;102640.06;4988021;28;19925;-73
2024/01/20 04:36:09;;;;;;;;;;;;;;;-2.63;100.00;102633.91;4987222;28;19921;-74
2024/01/20 04:38:34;;;;;;;;;;;;;;;-2.69;100.00;102648.78;4985429;28;19918;-74
2024/01/20 04:41:00;;;;;;;;;;;;;;;-2.60;100.00;102649.72;4987368;28;20434;-73
2024/01/20 04:43:26;;;;;;;;;;;;;;;-2.66;100.00;102652.31;4991610;28;20310;-74
2024/01/20 04:45:52;;;;;;;;;;;;;;;-2.55;100.00;102652.38;4984673;28;20484;-73
2024/01/20 04:48:17;;;;;;;;;;;;;;;-2.61;100.00;102660.22;4987450;28;19944;-74
2024/01/20 04:50:42;;;;;;;;;;;;;;;-2.65;100.00;102659.34;4988512;28;19922;-74
2024/01/20 04:53:07;;;;;;;;;;;;;;;-2.63;100.00;102654.06;5000803;28;20010;-73
2024/01/20 04:55:32;;;;;;;;;;;;;;;-2.65;100.00;102659.34;4987340;28;19921;-74
2024/01/20 04:57:58;;;;;;;;;;;;;;;-2.62;100.00;102667.22;4990799;28;19928;-74
2024/01/20 05:00:23;;;;;;;;;;;;;;;-2.58;100.00;102655.84;4985019;28;20498;-73
2024/01/20 05:02:48;;;;;;;;;;;;;;;-2.84;100.00;102636.41;4986145;28;20376;-74
2024/01/20 05:05:13;;;;;;;;;;;;;;;-2.67;100.00;102663.72;4998660;28;19937;-73
2024/01/20 05:07:39;;;;;;;;;;;;;;;-2.74;100.00;102664.53;4989769;28;19921;-73
2024/01/20 05:10:04;;;;;;;;;;;;;;;-2.75;100.00;102671.50;4984882;28;19929;-74
2024/01/20 05:12:29;;;;;;;;;;;;;;;-2.72;100.00;102681.19;4987974;28;19918;-73
2024/01/20 05:14:55;;;;;;;;;;;;;;;-2.64;100.00;102683.88;4986955;28;19917;-73
2024/01/20 05:17:20;;;;;;;;;;;;;;;-2.77;100.00;102682.91;5004827;28;19925;-73
2024/01/20 05:19:45;;;;;;;;;;;;;;;-2.63;100.00;102683.88;4992417;28;20252;-72
2024/01/20 05:22:10;;;;;;;;;;;;;;;-2.67;100.00;102679.50;4989331;28;20454;-73
2024/01/20 05:24:35;;;;;;;;;;;;;;;-2.67;100.00;102690.00;4988458;28;20439;-74
2024/01/20 05:27:01;;;;;;;;;;;;;;;-2.49;100.00;102688.34;5000174;28;20372;-73
2024/01/20 05:29:26;;;;;;;;;;;;;;;-2.45;100.00;102703.31;4989073;28;20430;-73
2024/01/20 05:31:51;;;;;;;;;;;;;;;-2.52;100.00;102704.13;4986164;28;19971;-73
2024/01/20 05:34:16;;;;;;;;;;;;;;;-2.47;100.00;102698.00;4988877;28;19929;-73
2024/01/20 05:36:42;;;;;;;;;;;;;;;-2.49;100.00;102704.16;4971839;28;20005;-73
2024/01/20 05:39:07;;;;;;;;;;;;;;;-2.49;100.00;102710.28;4986237;28;19917;-73
2024/01/20 05:41:32;;;;;;;;;;;;;;;-2.34;100.00;102703.38;4987197;28;22384;-73
2024/01/20 05:43:57;;;;;;;;;;;;;;;-2.39;100.00;102705.09;4989389;28;19918;-74
2024/01/20 05:46:23;;;;;;;;;;;;;;;-2.22;100.00;102697.28;4972598;28;19925;-73
2024/01/20 05:48:48;;;;;;;;;;;;;;;-2.30;100.00;102719.16;4987677;28;19925;-74
2024/01/20 05:51:13;;;;;;;;;;;;;;;-2.19;100.00;102711.34;4987850;28;19922;-74
2024/01/20 05:53:39;;;;;;;;;;;;;;;-2.23;100.00;102717.44;4994538;28;19909;-74
2024/01/20 05:56:05;;;;;;;;;;;;;;;-2.26;100.00;102720.09;4992421;28;19953;-74
2024/01/20 05:58:30;;;;;;;;;;;;;;;-2.29;100.00;102717.44;4988894;28;20300;-75
2024/01/20 06:00:55;;;;;;;;;;;;;;;-2.33;100.00;102708.63;4984351;28;20435;-74
2024/01/20 06:03:21;;;;;;;;;;;;;;;-2.37;100.00;102717.38;4985063;28;20376;-74
2024/01/20 06:05:46;;;;;;;;;;;;;;;-2.35;100.00;102713.00;4986825;28;20427;-74
2024/01/20 06:08:11;;;;;;;;;;;;;;;-2.35;100.00;102717.38;4989464;28;19922;-72
2024/01/20 06:10:36;;;;;;;;;;;;;;;-2.28;100.00;102720.06;4986655;28;19922;-75
2024/01/20 06:13:02;;;;;;;;;;;;;;;-2.28;100.00;102708.69;4985924;28;19964;-74
2024/01/20 06:15:27;;;;;;;;;;;;;;;-2.24;100.00;102727.97;4996117;28;19989;-74
2024/01/20 06:17:53;;;;;;;;;;;;;;;-2.17;100.00;102709.59;4986380;28;19921;-72
2024/01/20 06:20:18;;;;;;;;;;;;;;;-2.24;100.00;102714.81;4991101;28;19925;-72
2024/01/20 06:22:44;;;;;;;;;;;;;;;-2.41;100.00;102723.50;4986510;28;20375;-75
2024/01/20 06:25:09;;;;;;;;;;;;;;;-2.43;100.00;102728.72;4990879;28;20016;-74
2024/01/20 06:27:34;;;;;;;;;;;;;;;-2.38;100.00;102727.88;4989030;28;19925;-73
2024/01/20 06:29:59;;;;;;;;;;;;;;;-2.44;100.00;102734.88;4986240;28;19949;-75
2024/01/20 06:32:24;;;;;;;;;;;;;;;-2.37;100.00;102738.41;4989552;28;19998;-74
2024/01/20 06:34:50;;;;;;;;;;;;;;;-2.42;100.00;102741.03;4986532;28;19956;-74
2024/01/20 06:37:15;;;;;;;;;;;;;;;-2.39;100.00;102734.91;4983639;28;20000;-74
2024/01/20 06:39:41;;;;;;;;;;;;;;;-2.46;100.00;102741.00;4997789;28;19957;-75
2024/01/20 06:42:06;;;;;;;;;;;;;;;-2.42;100.00;102742.78;4988856;28;19930;-75
2024/01/20 06:44:31;;;;;;;;;;;;;;;-2.34;100.00;102733.16;4984506;28;20419;-74
2024/01/20 06:46:57;;;;;;;;;;;;;;;-2.39;100.00;102755.06;4984860;28;19928;-74
2024/01/20 06:49:22;;;;;;;;;;;;;;;-2.37;100.00;102743.66;5001633;28;19928;-74
2024/01/20 06:51:48;;;;;;;;;;;;;;;-2.34;100.00;102748.97;4986563;28;20580;-74
2024/01/20 06:54:13;;;;;;;;;;;;;;;-2.54;100.00;102742.69;4993867;28;19926;-75
2024/01/20 06:56:38;;;;;;;;;;;;;;;-2.42;100.00;102734.91;4992937;28;20385;-74
2024/01/20 06:59:03;;;;;;;;;;;;;;;-2.37;100.00;102746.31;4988352;28;20466;-72
2024/01/20 07:01:28;;;;;;;;;;;;;;;-2.43;100.00;102747.16;4991805;28;19983;-75
2024/01/20 07:03:54;;;;;;;;;;;;;;;-2.33;100.00;102737.56;4989292;28;20152;-75
2024/01/20 07:06:23;;;;;;;;;;;;;;;-2.53;100.00;102741.81;4992288;28;19925;-75
2024/01/20 07:08:48;;;;;;;;;;;;;;;-2.53;100.00;102753.22;4995482;28;19928;-74
2024/01/20 07:11:14;;;;;;;;;;;;;;;-2.63;100.00;102749.63;4990080;28;19925;-74
2024/01/20 07:13:39;;;;;;;;;;;;;;;-2.42;100.00;102740.16;5008615;28;19917;-75
2024/01/20 07:16:10;;;;;;;;;;;;;;;-2.51;100.00;102751.47;4995802;28;19929;-74
2024/01/20 07:18:36;;;;;;;;;;;;;;;-2.62;100.00;102756.66;4972942;28;19921;-75
2024/01/20 07:21:01;;;;;;;;;;;;;;;-2.54;100.00;102772.50;4990494;28;19914;-74
2024/01/20 07:23:26;;;;;;;;;;;;;;;-2.56;100.00;102766.34;4989513;28;20396;-74
2024/01/20 07:25:51;;;;;;;;;;;;;;;-2.52;100.00;102775.13;4987202;28;20151;-74
2024/01/20 07:28:17;;;;;;;;;;;;;;;-2.45;100.00;102758.53;4992178;28;19975;-74
2024/01/20 07:30:42;;;;;;;;;;;;;;;-2.51;100.00;102764.63;4994704;28;19928;-75
2024/01/20 07:33:07;;;;;;;;;;;;;;;-2.43;100.00;102759.44;4989537;28;19928;-75
2024/01/20 07:35:32;;;;;;;;;;;;;;;-2.38;100.00;102762.09;4987020;28;19924;-74
2024/01/20 07:37:58;;;;;;;;;;;;;;;-2.45;100.00;102762.03;4996937;28;19921;-74
2024/01/20 07:40:23;;;;;;;;;;;;;;;-2.44;100.00;102760.31;4997977;28;20071;-74
2024/01/20 07:42:48;;;;;;;;;;;;;;;-2.42;100.00;102758.56;4992062;28;20175;-74
2024/01/20 07:45:13;;;;;;;;;;;;;;;-2.48;100.00;102769.91;4992695;28;20362;-73
2024/01/20 07:47:39;;;;;;;;;;;;;;;-2.43;100.00;102775.22;4990275;28;20091;-74
2024/01/20 07:50:04;;;;;;;;;;;;;;;-2.38;100.00;102773.47;4996834;28;19947;-75
2024/01/20 07:52:29;;;;;;;;;;;;;;;-2.31;100.00;102763.91;4998352;28;19928;-74
2024/01/20 07:54:54;;;;;;;;;;;;;;;-2.41;100.00;102779.63;4996168;28;19921;-75
2024/01/20 07:57:19;;;;;;;;;;;;;;;-2.39;100.00;102778.75;4993505;28;19937;-75
2024/01/20 07:59:45;;;;;;;;;;;;;;;-2.06;100.00;102771.97;4995355;28;19953;-73
2024/01/20 08:02:10;;;;;;;;;;;;;;;-2.15;100.00;102773.66;4994979;28;20059;-74
2024/01/20 08:04:35;;;;;;;;;;;;;;;-2.17;100.00;102775.41;4991012;28;19921;-75
2024/01/20 08:07:00;;;;;;;;;;;;;;;-2.04;100.00;102772.84;4995210;28;19921;-74
2024/01/20 08:09:26;;;;;;;;;;;;;;;-2.17;100.00;102778.03;4996997;28;19921;-74
2024/01/20 08:11:51;;;;;;;;;;;;;;;-2.18;100.00;102792.06;4995876;28;19960;-74
2024/01/20 08:14:16;;;;;;;;;;;;;;;-2.14;100.00;102785.09;4993955;28;20025;-74
2024/01/20 08:16:42;;;;;;;;;;;;;;;-2.18;100.00;102784.16;4995123;28;20330;-74
2024/01/20 08:19:07;;;;;;;;;;;;;;;-2.22;100.00;102790.25;4991901;28;19921;-74
2024/01/20 08:21:33;;;;;;;;;;;;;;;-2.23;100.00;102783.25;4997218;28;19961;-75
2024/01/20 08:23:58;;;;;;;;;;;;;;;-2.16;100.00;102792.94;4997055;28;19991;-74
2024/01/20 08:26:23;;;;;;;;;;;;;;;-2.04;100.00;102797.41;4992148;28;19959;-74
2024/01/20 08:28:49;;;;;;;;;;;;;;;-2.16;100.00;102792.09;4989240;28;20342;-74
2024/01/20 08:31:14;;;;;;;;;;;;;;;-2.16;100.00;102781.56;4997682;28;19914;-73
2024/01/20 08:33:39;;;;;;;;;;;;;;;-2.14;100.00;102787.72;4995460;28;20208;-73
2024/01/20 08:36:05;;;;;;;;;;;;;;;-2.28;100.00;102804.28;4992744;28;20004;-75
2024/01/20 08:38:30;;;;;;;;;;;;;;;-2.06;100.00;102795.66;4997112;28;19923;-72
2024/01/20 08:40:55;;;;;;;;;;;;;;;-2.11;100.00;102792.97;4991491;28;20318;-74
2024/01/20 08:43:21;;;;;;;;;;;;;;;-2.07;100.00;102804.41;4988828;28;20364;-72
2024/01/20 08:45:46;;;;;;;;;;;;;;;-2.06;100.00;102801.78;4992026;28;20206;-74
2024/01/20 08:48:11;;;;;;;;;;;;;;;-1.98;100.00;102805.34;4994374;28;19965;-74
2024/01/20 08:50:37;;;;;;;;;;;;;;;-2.04;100.00;102813.22;4991917;28;19921;-74
2024/01/20 08:53:02;;;;;;;;;;;;;;;-2.00;100.00;102827.28;4992376;28;19921;-74
2024/01/20 08:55:27;;;;;;;;;;;;;;;-2.04;100.00;102823.75;4995495;28;20699;-74
2024/01/20 08:57:53;;;;;;;;;;;;;;;-2.04;100.00;102823.75;4990150;28;19968;-75
2024/01/20 09:00:18;;;;;;;;;;;;;;;-1.96;100.00;102818.50;4990229;28;19968;-73
2024/01/20 09:02:43;;;;;;;;;;;;;;;-1.86;100.00;102828.25;4992279;28;20288;-74
2024/01/20 09:05:09;;;;;;;;;;;;;;;-1.92;100.00;102828.19;4990610;28;19922;-75
2024/01/20 09:07:34;;;;;;;;;;;;;;;-1.90;100.00;102818.56;4991476;28;19932;-72
2024/01/20 09:10:02;;;;;;;;;;;;;;;-1.74;100.00;102822.16;4991283;28;20427;-72
2024/01/20 09:12:27;;;;;;;;;;;;;;;-1.74;100.00;102831.84;4991479;28;19918;-74
2024/01/20 09:14:52;;;;;;;;;;;;;;;-1.69;100.00;102835.34;4991013;28;19917;-74
2024/01/20 09:17:18;;;;;;;;;;;;;;;-1.96;100.00;102837.84;4990508;28;19967;-74
2024/01/20 09:19:43;;;;;;;;;;;;;;;-1.89;100.00;102833.50;4987754;28;19928;-74
2024/01/20 09:22:08;;;;;;;;;;;;;;;-1.94;100.00;102840.47;4998574;28;19964;-73
2024/01/20 09:24:33;;;;;;;;;;;;;;;-2.00;100.00;102851.00;5001291;28;19997;-72
2024/01/20 09:26:59;;;;;;;;;;;;;;;-1.93;100.00;102842.25;5003318;28;20364;-74
2024/01/20 09:29:24;;;;;;;;;;;;;;;-1.92;100.00;102845.78;4989141;28;19953;-74
2024/01/20 09:31:50;;;;;;;;;;;;;;;-1.97;100.00;102843.09;4989211;28;19925;-74
2024/01/20 09:34:15;;;;;;;;;;;;;;;-1.85;100.00;102837.91;4991382;28;19943;-74
2024/01/20 09:36:40;;;;;;;;;;;;;;;-1.81;100.00;102837.06;4991624;28;19928;-74
2024/01/20 09:39:05;;;;;;;;;;;;;;;-1.89;100.00;102838.75;4976108;28;19961;-74
2024/01/20 09:41:31;;;;;;;;;;;;;;;-1.67;100.00;102847.69;4992532;28;19928;-74
2024/01/20 09:43:57;;;;;;;;;;;;;;;-1.76;100.00;102859.91;4990349;28;20631;-73
2024/01/20 09:46:23;;;;;;;;;;;;;;;-1.72;100.00;102852.03;4987644;28;21984;-75
2024/01/20 09:48:54;;;;;;;;;;;;;;;-1.66;100.00;102856.44;4989857;28;19925;-73
2024/01/20 09:51:24;;;;;;;;;;;;;;;-1.77;100.00;102856.38;4993174;28;20243;-73
2024/01/20 09:53:54;;;;;;;;;;;;;;;-1.73;100.00;102860.81;4994322;28;19921;-73
2024/01/20 09:56:20;;;;;;;;;;;;;;;-1.77;100.00;102858.16;4978085;28;20402;-74
2024/01/20 09:58:45;;;;;;;;;;;;;;;-1.78;100.00;102851.13;4978472;28;19937;-75
2024/01/20 10:01:10;;;;;;;;;;;;;;;-1.74;100.00;102858.19;4986066;28;19953;-73
2024/01/20 10:03:35;;;;;;;;;;;;;;;-1.74;100.00;102872.22;4994144;28;20350;-72
2024/01/20 10:06:00;;;;;;;;;;;;;;;-1.77;100.00;102860.78;4993904;28;20453;-74
2024/01/20 10:08:26;;;;;;;;;;;;;;;-1.76;100.00;102881.00;4990784;28;20007;-73
2024/01/20 10:11:00;;;;;;;;;;;;;;;-1.76;100.00;102888.91;4991039;28;19987;-74
2024/01/20 10:13:26;;;;;;;;;;;;;;;-1.68;100.00;102881.91;4994699;28;20311;-74
2024/01/20 10:15:51;;;;;;;;;;;;;;;-1.62;100.00;102879.31;4991091;28;19925;-75
2024/01/20 10:18:16;;;;;;;;;;;;;;;-1.52;100.00;102880.25;4989746;28;20036;-75
2024/01/20 10:20:42;;;;;;;;;;;;;;;-1.32;100.00;102890.03;4989046;28;19925;-75
2024/01/20 10:23:07;;;;;;;;;;;;;;;-1.31;100.00;102884.75;4992396;28;19925;-75
2024/01/20 10:25:32;;;;;;;;;;;;;;;-1.44;100.00;102891.72;4988816;28;19960;-73
2024/01/20 10:27:58;;;;;;;;;;;;;;;-1.36;100.00;102895.28;4976768;28;19965;-76
2024/01/20 10:30:25;;;;;;;;;;;;;;;-1.39;100.00;102903.16;4986574;28;19925;-74
2024/01/20 10:32:50;;;;;;;;;;;;;;;-1.51;100.00;102895.19;4990134;28;20011;-74
2024/01/20 10:35:15;;;;;;;;;;;;;;;-1.45;100.00;102892.59;5002312;28;20453;-75
2024/01/20 10:37:45;;;;;;;;;;;;;;;-1.48;100.00;102899.59;4996118;28;20020;-75
2024/01/20 10:40:14;;;;;;;;;;;;;;;-1.33;100.00;102904.94;4990946;28;19928;-73
2024/01/20 10:42:46;;;;;;;;;;;;;;;-1.48;100.00;102905.75;4994476;28;19926;-75
2024/01/20 10:45:18;;;;;;;;;;;;;;;-1.46;100.00;102911.03;4972134;28;20035;-73
2024/01/20 10:48:04;;;;;;;;;;;;;;;-1.47;100.00;102902.22;4997227;28;19971;-74
2024/01/20 10:50:29;;;;;;;;;;;;;;;-1.33;100.00;102898.81;4985038;28;19925;-74
2024/01/20 10:52:54;;;;;;;;;;;;;;;-1.31;100.00;102895.28;5006344;28;20047;-74
2024/01/20 10:55:20;;;;;;;;;;;;;;;-1.13;100.00;102901.50;4992165;28;20339;-74
2024/01/20 10:57:48;;;;;;;;;;;;;;;-1.21;100.00;102902.38;4979017;28;19953;-74
2024/01/20 11:00:13;;;;;;;;;;;;;;;-1.16;100.00;102896.22;4984742;28;19922;-75
2024/01/20 11:02:39;;;;;;;;;;;;;;;-1.29;100.00;102901.47;4990149;28;20357;-75
2024/01/20 11:07:39;;;;;;;;;;;;;;;-1.26;100.00;102904.13;5072071;23;20142;-75
2024/01/20 11:10:05;;;;;;;;;;;;;;;-1.23;100.00;102913.78;5002016;28;19917;-75
2024/01/20 11:12:31;;;;;;;;;;;;;;;-1.04;100.00;102903.31;5004003;28;19918;-75
2024/01/20 11:14:57;;;;;;;;;;;;;;;-1.07;100.00;102894.53;5020487;28;19967;-75
2024/01/20 11:17:22;;;;;;;;;;;;;;;-0.98;100.00;102896.31;5006802;28;19917;-75
2024/01/20 11:19:48;;;;;;;;;;;;;;;-0.86;100.00;102890.22;5013650;28;19920;-75
2024/01/20 11:22:29;;;;;;;;;;;;;;;-0.81;100.00;102904.28;5024174;28;19929;-75
2024/01/20 11:24:55;;;;;;;;;;;;;;;-0.93;100.00;102891.06;5010119;28;19925;-75
2024/01/20 11:27:20;;;;;;;;;;;;;;;-0.83;100.00;102884.03;5006420;28;19984;-76
2024/01/20 11:29:45;;;;;;;;;;;;;;;-0.58;100.00;102879.72;5001897;28;19987;-76
2024/01/20 11:32:11;;;;;;;;;;;;;;;-0.93;100.00;102885.78;5006163;28;20612;-76
2024/01/20 11:34:36;;;;;;;;;;;;;;;-0.87;100.00;102880.53;4989855;28;19928;-76
2024/01/20 11:37:01;;;;;;;;;;;;;;;-0.86;100.00;102882.28;5009294;28;19936;-75
2024/01/20 11:39:27;;;;;;;;;;;;;;;-0.99;100.00;102877.84;5009049;28;20253;-75
2024/01/20 11:42:01;;;;;;;;;;;;;;;-0.97;100.00;102865.53;5025154;28;20026;-75
2024/01/20 11:44:27;;;;;;;;;;;;;;;-1.01;100.00;102876.94;5001276;28;20029;-74
2024/01/20 11:46:53;;;;;;;;;;;;;;;-0.86;100.00;102871.75;5001949;28;19921;-75
2024/01/20 11:49:18;;;;;;;;;;;;;;;-0.81;100.00;102863.84;5002052;28;20027;-75
2024/01/20 11:51:43;;;;;;;;;;;;;;;-0.55;100.00;102866.53;5002679;28;19926;-75
2024/01/20 11:54:08;;;;;;;;;;;;;;;-0.52;100.00;102868.28;5004122;28;19920;-75
2024/01/20 11:56:34;;;;;;;;;;;;;;;-0.50;100.00;102864.75;5003847;28;19918;-75
2024/01/20 11:58:59;;;;;;;;;;;;;;;-0.23;100.00;102859.50;5020980;28;19921;-75
2024/01/20 12:01:24;;;;;;;;;;;;;;;-0.38;100.00;102865.66;5023804;28;19925;-75
2024/01/20 12:03:49;;;;;;;;;;;;;;;-0.42;100.00;102862.16;5006309;28;19921;-74
2024/01/20 12:06:15;;;;;;;;;;;;;;;-0.59;100.00;102862.13;5002923;28;20008;-76
2024/01/20 12:08:44;;;;;;;;;;;;;;;-0.71;100.00;102859.44;5001221;28;20075;-75
2024/01/20 12:11:16;;;;;;;;;;;;;;;-0.65;100.00;102855.06;5002402;28;20339;-75
2024/01/20 12:13:42;;;;;;;;;;;;;;;-0.66;100.00;102865.63;5002198;28;19922;-76
2024/01/20 12:16:07;;;;;;;;;;;;;;;-0.54;100.00;102857.75;5005962;28;20097;-74
2024/01/20 12:18:33;;;;;;;;;;;;;;;-0.31;100.00;102846.31;5005636;28;19914;-75
2024/01/20 12:20:58;;;;;;;;;;;;;;;0.49;100.00;102849.72;5005496;28;19940;-74